Aérodrome :
LOGIN :

S'inscrire | Disclaimer

   EN    FR    IT 

 










Légende :    VFR   VFR Marginal   IFR   IFR Intensif   IFR Très Intensif
Visi : 
Plafond : 
>= 8 km
>= 3000ft
5 à 8 km
1000 à 3000 ft
1500m à 5 km
500 à 1000 ft
800 à 1500m
200 à 500 ft
< 800m
< 200 ft
Symboles :   Orages  Brouillard  Fortes neiges  Fortes précipitations  Vent > 20 kt
SIGMETs :   Divers  Orages  Givrage  Turbulence  Onde Orograph.  Cendres Volcan.







- Altitude de l'aérodrome : 1906 ft
- Code IATA : INN


LOWI - Innsbruck

DERNIER METAR :
  • 270120Z AUTO 28010KT 9999 -DZ FEW050 SCT070 BKN100 18/15 Q1013

METARs EXPIRÉS :
  • 270050Z AUTO 27010KT 240V300 9999 FEW050 SCT080 BKN110 18/14 Q1013
  • 270020Z AUTO 26009KT 9999 FEW060 SCT100 BKN110 18/14 Q1013
  • 262350Z AUTO 26010KT 9999 FEW100 BKN110 18/15 Q1013
  • 262320Z AUTO 27013KT 9999 SCT110 BKN120 18/15 Q1013
  • 262250Z AUTO 28013KT 9999 //////CB FEW110 BKN120 18/15 Q1013

TAF TAF LOWI
Valide du 27 à 00h jusqu'au 28 à 00h UTC


262315Z 2700/2724 27007KT 9999 FEW050 SCT070 BKN100 TX25/2713Z TN17/2800Z
TEMPO 2700/2710 VRB12KT SHRA SCT050TCU BKN080
PROB40
TEMPO 2700/2709 VRB15G30KT TSRA SCT040CB BKN060
PROB40
TEMPO 2714/2718 30010G25KT -TSRA FEW040CB BKN060
BECMG 2718/2720 VRB02KT FEW060 SCT150
Pas de NOTAMs connus pour ce terrain.



MET'MAP, la Météo Aéronautique d'un coup d'oeil ! - Copyright ORBIFLY Décembre 2007 - Disclaimer

ORBIFLY MET'MAP TEAM :

Programmation & Développement : Alexandra Zaïnal
Conception & Développement : Baudouin d'Aumeries
Co-Programmation & Développement : Marc-Olivier Méhu
Soutien technique & logistique : Manuel Goepfert

Contact : metmap@orbifly.com




SOURCES & CREDITS :

   NOAA